createdAt,value
2017-10-31T00:00:40.811Z,4.63
2017-10-31T00:03:08.414Z,3.27
2017-10-31T00:05:36.020Z,2.03
2017-10-31T00:08:03.685Z,3.37
2017-10-31T00:10:31.359Z,6.33
2017-10-31T00:12:58.970Z,3.00
2017-10-31T00:15:26.635Z,5.50
2017-10-31T00:17:54.305Z,1.60
2017-10-31T00:20:21.931Z,3.90
2017-10-31T00:22:49.583Z,1.43
2017-10-31T00:25:17.201Z,4.20
2017-10-31T00:27:44.815Z,3.07
2017-10-31T00:30:12.475Z,5.63
2017-10-31T00:32:40.140Z,2.43
2017-10-31T00:35:07.760Z,5.20
2017-10-31T00:37:36.337Z,4.10
2017-10-31T00:40:03.968Z,2.03
2017-10-31T00:42:31.583Z,3.63
2017-10-31T00:44:59.329Z,2.80
2017-10-31T00:47:26.935Z,3.47
2017-10-31T00:49:54.592Z,5.20
2017-10-31T00:52:22.271Z,2.80
2017-10-31T00:54:49.890Z,4.13
2017-10-31T00:57:17.499Z,1.20
2017-10-31T00:59:45.162Z,3.97
2017-10-31T01:02:12.819Z,2.23
2017-10-31T01:04:40.428Z,2.60
2017-10-31T01:07:08.179Z,3.50
2017-10-31T01:09:35.786Z,3.67
2017-10-31T01:12:03.404Z,7.00
2017-10-31T01:14:31.058Z,2.20
2017-10-31T01:16:58.668Z,2.10
2017-10-31T01:19:26.326Z,8.23
2017-10-31T01:21:53.995Z,2.97
2017-10-31T01:24:21.619Z,3.43
2017-10-31T01:26:49.230Z,4.77
2017-10-31T01:29:16.952Z,4.83
2017-10-31T01:31:44.575Z,5.63
2017-10-31T01:34:12.251Z,2.90
2017-10-31T01:36:39.943Z,4.30
2017-10-31T01:39:07.626Z,2.30
2017-10-31T01:41:35.312Z,2.40
2017-10-31T01:44:03.034Z,2.90
2017-10-31T01:46:30.637Z,4.13
2017-10-31T01:48:58.249Z,4.20
2017-10-31T01:51:25.975Z,5.37
2017-10-31T01:53:53.653Z,2.80
2017-10-31T01:56:21.342Z,4.03
2017-10-31T01:58:49.008Z,5.83
2017-10-31T02:01:16.617Z,2.70
2017-10-31T02:03:44.288Z,2.97
2017-10-31T02:06:12.020Z,2.83
2017-10-31T02:08:39.645Z,13.70
2017-10-31T02:11:07.260Z,5.17
2017-10-31T02:13:34.915Z,5.67
2017-10-31T02:16:02.528Z,5.57
2017-10-31T02:18:30.138Z,3.87
2017-10-31T02:20:57.822Z,6.30
2017-10-31T02:23:25.459Z,3.63
2017-10-31T02:25:53.998Z,3.80
2017-10-31T02:28:21.717Z,7.33
2017-10-31T02:30:49.405Z,5.10
2017-10-31T02:33:17.088Z,10.43
2017-10-31T02:35:44.766Z,3.63
2017-10-31T02:38:12.444Z,4.70
2017-10-31T02:40:40.075Z,14.07
2017-10-31T02:43:07.827Z,6.00
2017-10-31T02:45:35.481Z,3.80
2017-10-31T02:48:03.161Z,14.17
2017-10-31T02:50:30.864Z,2.43
2017-10-31T02:52:58.496Z,4.67
2017-10-31T02:55:26.129Z,2.50
2017-10-31T02:57:53.822Z,4.07
2017-10-31T03:00:21.509Z,5.20
2017-10-31T03:02:49.172Z,1.90
2017-10-31T03:05:16.865Z,3.33
2017-10-31T03:07:44.557Z,4.10
2017-10-31T03:10:12.299Z,4.43
2017-10-31T03:12:40.055Z,1.90
2017-10-31T03:15:07.736Z,3.50
2017-10-31T03:17:35.423Z,10.33
2017-10-31T03:20:03.108Z,5.63
2017-10-31T03:22:30.811Z,14.77
2017-10-31T03:24:58.444Z,6.00
2017-10-31T03:27:26.119Z,3.80
2017-10-31T03:29:53.732Z,5.20
2017-10-31T03:32:21.419Z,4.30
2017-10-31T03:34:49.108Z,14.77
2017-10-31T03:37:16.767Z,6.20
2017-10-31T03:39:44.392Z,3.27
2017-10-31T03:42:12.084Z,5.00
2017-10-31T03:44:39.776Z,4.77
2017-10-31T03:47:07.393Z,3.47
2017-10-31T03:49:35.096Z,16.13
2017-10-31T03:52:02.719Z,3.97
2017-10-31T03:54:30.340Z,3.03
2017-10-31T03:56:58.007Z,3.60
2017-10-31T03:59:25.700Z,5.90
2017-10-31T04:01:53.347Z,3.93
2017-10-31T04:04:21.172Z,9.07
2017-10-31T04:06:48.846Z,3.27
2017-10-31T04:09:16.556Z,6.93
2017-10-31T04:11:44.300Z,4.23
2017-10-31T04:14:12.957Z,12.70
2017-10-31T04:16:40.590Z,8.60
2017-10-31T04:19:08.259Z,4.00
2017-10-31T04:21:35.935Z,3.00
2017-10-31T04:24:03.545Z,6.00
2017-10-31T04:26:31.203Z,4.50
2017-10-31T04:28:58.819Z,4.53
2017-10-31T04:31:26.428Z,5.23
2017-10-31T04:33:54.143Z,3.00
2017-10-31T04:38:55.656Z,4.13
2017-10-31T04:41:23.293Z,17.87
2017-10-31T04:43:51.019Z,6.83
2017-10-31T04:46:18.699Z,15.00
2017-10-31T04:48:46.319Z,13.03
2017-10-31T04:51:13.988Z,6.33
2017-10-31T04:53:41.667Z,10.80
2017-10-31T04:56:09.307Z,8.23
2017-10-31T04:58:36.998Z,18.60
2017-10-31T05:01:04.660Z,12.40
2017-10-31T05:03:32.278Z,14.17
2017-10-31T05:05:59.891Z,8.10
2017-10-31T05:08:27.556Z,6.60
2017-10-31T05:10:55.224Z,3.03
2017-10-31T05:13:22.824Z,5.90
2017-10-31T05:15:50.636Z,5.73
2017-10-31T05:18:18.411Z,17.60
2017-10-31T05:20:46.080Z,5.23
2017-10-31T05:23:13.748Z,8.10
2017-10-31T05:25:41.363Z,15.23
2017-10-31T05:28:09.777Z,7.70
2017-10-31T05:30:37.509Z,26.10
2017-10-31T05:33:05.350Z,16.90
2017-10-31T05:35:33.036Z,10.45
2017-10-31T05:38:00.700Z,16.17
2017-10-31T05:40:28.308Z,18.87
2017-10-31T05:42:55.965Z,18.83
2017-10-31T05:45:23.629Z,8.60
2017-10-31T05:47:51.243Z,29.83
2017-10-31T05:50:18.924Z,13.03
2017-10-31T05:52:46.638Z,7.87
2017-10-31T05:55:14.238Z,13.03
2017-10-31T05:57:41.913Z,11.67
2017-10-31T06:00:09.580Z,3.30
2017-10-31T06:02:37.191Z,13.83
2017-10-31T06:05:04.882Z,8.73
2017-10-31T06:07:32.567Z,4.13
2017-10-31T06:10:00.180Z,11.23
2017-10-31T06:12:27.792Z,4.23
2017-10-31T06:14:55.451Z,6.53
2017-10-31T06:17:23.055Z,6.57
2017-10-31T06:19:50.664Z,5.03
2017-10-31T06:22:24.020Z,3.47
2017-10-31T06:24:57.123Z,5.93
2017-10-31T06:27:30.370Z,6.37
2017-10-31T06:30:03.647Z,5.30
2017-10-31T06:32:31.299Z,3.67
2017-10-31T06:34:58.971Z,7.27
2017-10-31T06:37:26.646Z,4.50
2017-10-31T06:39:54.315Z,4.87
2017-10-31T06:42:21.920Z,3.70
2017-10-31T06:44:49.522Z,6.63
2017-10-31T06:47:17.735Z,4.70
2017-10-31T06:49:45.350Z,4.90
2017-10-31T06:52:12.976Z,5.83
2017-10-31T06:54:40.647Z,15.33
2017-10-31T06:57:08.255Z,4.80
2017-10-31T06:59:35.932Z,6.90
2017-10-31T07:02:03.659Z,10.43
2017-10-31T07:04:31.272Z,13.87
2017-10-31T07:06:58.891Z,8.97
2017-10-31T07:09:26.596Z,9.40
2017-10-31T07:11:54.226Z,8.50
2017-10-31T07:14:21.841Z,20.33
2017-10-31T07:16:49.599Z,6.67
2017-10-31T07:19:17.212Z,11.93
2017-10-31T07:21:44.816Z,8.40
2017-10-31T07:24:12.475Z,8.63
2017-10-31T07:26:40.100Z,18.73
2017-10-31T07:29:07.773Z,4.93
2017-10-31T07:31:35.447Z,12.53
2017-10-31T07:34:03.065Z,13.73
2017-10-31T07:36:30.688Z,15.30
2017-10-31T07:38:58.409Z,20.93
2017-10-31T07:41:26.083Z,13.33
2017-10-31T07:43:53.679Z,9.83
2017-10-31T07:46:21.324Z,3.43
2017-10-31T07:48:48.940Z,7.30
2017-10-31T07:51:16.544Z,4.63
2017-10-31T07:53:44.219Z,3.07
2017-10-31T07:56:11.823Z,6.03
2017-10-31T07:58:39.443Z,7.50
2017-10-31T08:01:07.149Z,3.43
2017-10-31T08:03:34.759Z,5.60
2017-10-31T08:06:02.379Z,3.33
2017-10-31T08:08:30.041Z,3.83
2017-10-31T08:10:57.663Z,4.60
2017-10-31T08:13:25.264Z,4.97
2017-10-31T08:15:52.972Z,3.37
2017-10-31T08:18:20.652Z,4.77
2017-10-31T08:20:48.259Z,3.50
2017-10-31T08:23:15.979Z,2.70
2017-10-31T08:25:43.579Z,3.83
2017-10-31T08:28:11.244Z,4.90
2017-10-31T08:30:38.896Z,4.13
2017-10-31T08:33:06.501Z,13.10
2017-10-31T08:35:34.119Z,2.87
2017-10-31T08:38:01.843Z,14.10
2017-10-31T08:40:29.463Z,1.73
2017-10-31T08:42:57.145Z,8.67
2017-10-31T08:45:24.823Z,10.00
2017-10-31T08:47:52.428Z,9.53
2017-10-31T08:50:20.055Z,6.53
2017-10-31T08:52:47.779Z,9.23
2017-10-31T08:55:15.416Z,6.63
2017-10-31T08:57:43.099Z,12.20
2017-10-31T09:00:10.928Z,18.53
2017-10-31T09:02:38.547Z,13.03
2017-10-31T09:05:06.220Z,8.47
2017-10-31T09:07:33.887Z,2.83
2017-10-31T09:10:01.492Z,5.40
2017-10-31T09:12:29.123Z,2.63
2017-10-31T09:14:56.822Z,4.07
2017-10-31T09:17:24.516Z,5.33
2017-10-31T09:19:52.240Z,3.23
2017-10-31T09:22:19.904Z,8.90
2017-10-31T09:24:47.518Z,14.33
2017-10-31T09:27:15.134Z,2.20
2017-10-31T09:29:42.816Z,3.40
2017-10-31T09:32:10.438Z,7.40
2017-10-31T09:34:38.125Z,6.70
2017-10-31T09:37:05.884Z,3.97
2017-10-31T09:39:33.575Z,3.60
2017-10-31T09:42:01.236Z,5.17
2017-10-31T09:44:28.912Z,4.83
2017-10-31T09:46:56.602Z,7.17
2017-10-31T09:49:24.270Z,5.20
2017-10-31T09:51:52.002Z,3.70
2017-10-31T09:54:19.668Z,4.83
2017-10-31T09:56:47.279Z,7.67
2017-10-31T09:59:14.940Z,5.40
2017-10-31T10:01:42.619Z,4.00
2017-10-31T10:04:10.235Z,4.43
2017-10-31T10:06:38.051Z,4.70
2017-10-31T10:09:05.686Z,13.23
2017-10-31T10:11:33.309Z,3.57
2017-10-31T10:14:00.975Z,3.43
2017-10-31T10:16:28.597Z,6.60
2017-10-31T10:18:56.273Z,3.90
2017-10-31T10:21:23.938Z,2.73
2017-10-31T10:23:51.547Z,3.40
2017-10-31T10:26:19.217Z,4.77
2017-10-31T10:28:46.935Z,7.80
2017-10-31T10:31:14.544Z,3.50
2017-10-31T10:33:42.156Z,4.00
2017-10-31T10:36:09.817Z,4.10
2017-10-31T10:38:37.428Z,4.83
2017-10-31T10:41:05.052Z,4.87
2017-10-31T10:43:32.716Z,4.40
2017-10-31T10:46:00.328Z,4.77
2017-10-31T10:48:27.944Z,4.57
2017-10-31T10:50:55.619Z,11.27
2017-10-31T10:53:23.299Z,9.40
2017-10-31T10:55:50.980Z,11.13
2017-10-31T10:58:18.688Z,4.27
2017-10-31T11:00:46.414Z,3.97
2017-10-31T11:03:29.068Z,3.70
2017-10-31T11:05:56.676Z,5.67
2017-10-31T11:08:24.375Z,5.13
2017-10-31T11:10:52.095Z,5.77
2017-10-31T11:13:19.730Z,3.13
2017-10-31T11:15:47.399Z,5.23
2017-10-31T11:18:15.149Z,2.83
2017-10-31T11:20:42.774Z,8.33
2017-10-31T11:23:10.385Z,4.43
2017-10-31T11:25:38.055Z,8.13
2017-10-31T11:28:05.740Z,3.17
2017-10-31T11:30:33.423Z,6.40
2017-10-31T11:33:01.157Z,7.10
2017-10-31T11:35:28.783Z,4.00
2017-10-31T11:37:56.403Z,12.20
2017-10-31T11:40:24.071Z,11.53
2017-10-31T11:42:51.687Z,9.47
2017-10-31T11:45:19.299Z,9.43
2017-10-31T11:47:46.963Z,4.40
2017-10-31T11:50:14.585Z,3.67
2017-10-31T11:52:42.204Z,4.30
2017-10-31T11:55:09.895Z,7.40
2017-10-31T11:57:37.565Z,4.63
2017-10-31T12:00:05.236Z,6.23
2017-10-31T12:02:32.912Z,2.20
2017-10-31T12:05:00.525Z,4.23
2017-10-31T12:07:28.146Z,4.03
2017-10-31T12:09:55.821Z,2.63
2017-10-31T12:12:23.439Z,7.40
2017-10-31T12:14:51.059Z,5.33
2017-10-31T12:17:18.777Z,2.33
2017-10-31T12:19:46.380Z,4.50
2017-10-31T12:22:14.061Z,11.67
2017-10-31T12:24:41.737Z,5.20
2017-10-31T12:27:09.349Z,9.63
2017-10-31T12:29:36.967Z,2.80
2017-10-31T12:32:04.647Z,4.63
2017-10-31T12:34:32.260Z,6.43
2017-10-31T12:36:59.932Z,2.43
2017-10-31T12:39:27.596Z,4.30
2017-10-31T12:41:55.248Z,4.40
2017-10-31T12:44:22.912Z,4.43
2017-10-31T12:46:50.650Z,6.23
2017-10-31T12:49:18.319Z,7.63
2017-10-31T12:51:45.932Z,6.47
2017-10-31T12:54:13.599Z,4.40
2017-10-31T12:56:41.271Z,9.00
2017-10-31T12:59:08.884Z,6.43
2017-10-31T13:01:36.562Z,6.27
2017-10-31T13:04:04.208Z,6.80
2017-10-31T13:06:31.833Z,8.30
2017-10-31T13:08:59.599Z,4.93
2017-10-31T13:11:27.211Z,6.93
2017-10-31T13:13:54.924Z,5.33
2017-10-31T13:16:22.655Z,14.33
2017-10-31T13:18:50.347Z,13.90
2017-10-31T13:21:17.976Z,16.97
2017-10-31T13:23:45.735Z,4.20
2017-10-31T13:26:13.759Z,9.53
2017-10-31T13:28:41.775Z,5.90
2017-10-31T13:31:09.876Z,9.90
2017-10-31T13:33:37.924Z,14.53
2017-10-31T13:36:05.974Z,5.10
2017-10-31T13:38:34.188Z,4.50
2017-10-31T13:41:02.296Z,9.13
2017-10-31T13:43:30.316Z,8.37
2017-10-31T13:45:57.987Z,4.90
2017-10-31T13:48:26.075Z,6.83
2017-10-31T13:50:54.087Z,5.80
2017-10-31T13:53:22.267Z,10.77
2017-10-31T13:55:49.945Z,9.87
2017-10-31T13:58:17.556Z,4.60
2017-10-31T14:00:45.580Z,8.73
2017-10-31T14:03:13.603Z,5.53
2017-10-31T14:05:41.439Z,6.77
2017-10-31T14:08:09.553Z,9.97
2017-10-31T14:10:37.403Z,15.30
2017-10-31T14:13:05.011Z,19.20
2017-10-31T14:15:32.683Z,11.33
2017-10-31T14:18:00.720Z,7.47
2017-10-31T14:20:28.751Z,5.70
2017-10-31T14:22:56.500Z,17.83
2017-10-31T14:25:24.115Z,13.40
2017-10-31T14:27:51.784Z,12.00
2017-10-31T14:30:19.459Z,20.60
2017-10-31T14:32:47.068Z,12.70
2017-10-31T14:35:14.676Z,8.43
2017-10-31T14:37:42.361Z,14.53
2017-10-31T14:40:10.023Z,16.27
2017-10-31T14:42:37.627Z,16.90
2017-10-31T14:45:05.300Z,13.87
2017-10-31T14:47:32.899Z,9.90
2017-10-31T14:50:00.517Z,21.97
2017-10-31T14:52:28.248Z,21.17
2017-10-31T14:54:55.864Z,15.17
2017-10-31T14:57:23.537Z,9.27
2017-10-31T14:59:51.194Z,14.13
2017-10-31T15:02:18.808Z,6.93
2017-10-31T15:04:46.435Z,11.90
2017-10-31T15:07:14.111Z,13.20
2017-10-31T15:09:41.734Z,14.00
2017-10-31T15:12:09.354Z,26.90
2017-10-31T15:14:37.016Z,8.97
2017-10-31T15:17:04.635Z,21.67
2017-10-31T15:19:32.255Z,15.50
2017-10-31T15:21:59.963Z,10.37
2017-10-31T15:24:27.570Z,17.20
2017-10-31T15:26:55.183Z,22.73
2017-10-31T15:29:22.865Z,11.90
2017-10-31T15:31:50.544Z,12.10
2017-10-31T15:34:18.151Z,12.57
2017-10-31T15:36:45.808Z,10.70
2017-10-31T15:39:13.516Z,19.13
2017-10-31T15:41:41.202Z,51.87
2017-10-31T15:44:08.859Z,43.83
2017-10-31T15:46:36.471Z,15.27
2017-10-31T15:49:04.080Z,15.33
2017-10-31T15:51:31.792Z,11.60
2017-10-31T15:53:59.425Z,12.47
2017-10-31T15:56:27.107Z,10.80
2017-10-31T15:58:54.836Z,15.53
2017-10-31T16:01:22.467Z,18.33
2017-10-31T16:03:50.088Z,15.10
2017-10-31T16:06:17.757Z,18.80
2017-10-31T16:08:45.429Z,42.17
2017-10-31T16:11:13.104Z,43.63
2017-10-31T16:13:40.839Z,56.73
2017-10-31T16:16:08.455Z,55.27
2017-10-31T16:18:36.075Z,43.07
2017-10-31T16:21:03.804Z,28.33
2017-10-31T16:23:31.420Z,33.63
2017-10-31T16:25:59.040Z,29.40
2017-10-31T16:28:26.724Z,29.63
2017-10-31T16:30:54.347Z,29.40
2017-10-31T16:33:21.953Z,49.13
2017-10-31T16:35:49.625Z,79.33
2017-10-31T16:38:17.239Z,71.73
2017-10-31T16:40:44.965Z,57.83
2017-10-31T16:43:12.654Z,40.30
2017-10-31T16:45:40.272Z,41.73
2017-10-31T16:48:07.896Z,32.03
2017-10-31T16:50:35.560Z,24.63
2017-10-31T16:53:03.187Z,19.70
2017-10-31T16:55:30.803Z,21.47
2017-10-31T16:57:58.551Z,23.10
2017-10-31T17:00:26.220Z,18.70
2017-10-31T17:02:53.907Z,16.20
2017-10-31T17:05:21.640Z,28.23
2017-10-31T17:07:49.323Z,40.67
2017-10-31T17:10:16.949Z,31.40
2017-10-31T17:12:44.623Z,28.97
2017-10-31T17:15:12.247Z,27.30
2017-10-31T17:17:39.861Z,29.87
2017-10-31T17:20:07.557Z,29.93
2017-10-31T17:22:35.184Z,25.10
2017-10-31T17:25:02.803Z,32.90
2017-10-31T17:27:30.487Z,22.90
2017-10-31T17:29:58.103Z,23.93
2017-10-31T17:32:25.716Z,27.03
2017-10-31T17:34:53.392Z,28.30
2017-10-31T17:37:20.999Z,24.00
2017-10-31T17:39:48.632Z,25.60
2017-10-31T17:42:16.304Z,22.07
2017-10-31T17:44:43.981Z,26.03
2017-10-31T17:47:11.600Z,24.00
2017-10-31T17:49:40.067Z,23.13
2017-10-31T17:52:07.686Z,21.63
2017-10-31T17:54:35.362Z,22.00
2017-10-31T17:57:03.030Z,34.07
2017-10-31T17:59:30.638Z,17.73
2017-10-31T18:01:58.312Z,15.40
2017-10-31T18:04:26.041Z,21.70
2017-10-31T18:06:53.654Z,11.87
2017-10-31T18:09:21.264Z,16.57
2017-10-31T18:11:49.016Z,13.93
2017-10-31T18:14:16.639Z,13.20
2017-10-31T18:16:44.317Z,31.43
2017-10-31T18:19:11.975Z,20.23
2017-10-31T18:21:39.627Z,18.93
2017-10-31T18:24:07.245Z,25.13
2017-10-31T18:26:34.895Z,8.93
2017-10-31T18:29:02.578Z,13.97
2017-10-31T18:31:30.202Z,14.57
2017-10-31T18:33:57.863Z,10.13
2017-10-31T18:36:25.527Z,10.17
2017-10-31T18:38:53.195Z,9.17
2017-10-31T18:41:20.915Z,8.77
2017-10-31T18:43:48.524Z,9.33
2017-10-31T18:46:16.191Z,8.20
2017-10-31T18:48:44.889Z,6.97
2017-10-31T18:51:12.507Z,12.73
2017-10-31T18:53:40.183Z,7.33
2017-10-31T18:56:07.866Z,8.17
2017-10-31T18:58:35.481Z,10.47
2017-10-31T19:01:03.183Z,19.70
2017-10-31T19:03:30.915Z,14.30
2017-10-31T19:05:58.528Z,26.40
2017-10-31T19:08:26.213Z,11.17
2017-10-31T19:10:53.911Z,14.80
2017-10-31T19:13:21.525Z,10.33
2017-10-31T19:15:49.201Z,14.13
2017-10-31T19:18:16.867Z,9.50
2017-10-31T19:20:44.480Z,8.90
2017-10-31T19:23:12.172Z,7.90
2017-10-31T19:25:39.905Z,7.67
2017-10-31T19:28:07.531Z,9.37
2017-10-31T19:30:35.207Z,7.13
2017-10-31T19:33:02.895Z,6.50
2017-10-31T19:35:30.518Z,10.07
2017-10-31T19:37:58.141Z,11.70
2017-10-31T19:40:25.881Z,10.73
2017-10-31T19:42:53.483Z,10.30
2017-10-31T19:45:21.152Z,10.80
2017-10-31T19:47:48.810Z,9.90
2017-10-31T19:50:16.432Z,12.10
2017-10-31T19:52:44.096Z,9.27
2017-10-31T19:55:11.792Z,8.17
2017-10-31T19:57:39.395Z,7.83
2017-10-31T20:00:07.003Z,8.47
2017-10-31T20:02:34.679Z,9.93
2017-10-31T20:05:03.143Z,12.53
2017-10-31T20:07:30.756Z,9.40
2017-10-31T20:09:58.415Z,11.80
2017-10-31T20:12:26.031Z,8.37
2017-10-31T20:14:53.651Z,10.40
2017-10-31T20:17:21.386Z,7.60
2017-10-31T20:19:49.058Z,15.10
2017-10-31T20:22:16.672Z,14.20
2017-10-31T20:24:44.355Z,8.97
2017-10-31T20:27:12.023Z,8.30
2017-10-31T20:29:39.635Z,10.57
2017-10-31T20:32:07.291Z,7.37
2017-10-31T20:34:34.896Z,9.17
2017-10-31T20:37:02.525Z,6.83
2017-10-31T20:39:30.239Z,8.37
2017-10-31T20:41:57.875Z,14.70
2017-10-31T20:44:25.486Z,12.60
2017-10-31T20:46:53.135Z,10.67
2017-10-31T20:49:20.804Z,6.40
2017-10-31T20:51:48.475Z,8.13
2017-10-31T20:54:16.235Z,9.27
2017-10-31T20:56:43.849Z,6.47
2017-10-31T20:59:11.471Z,7.77
2017-10-31T21:01:39.132Z,10.37
2017-10-31T21:04:06.740Z,7.70
2017-10-31T21:06:34.422Z,7.40
2017-10-31T21:09:02.148Z,6.20
2017-10-31T21:11:29.820Z,6.00
2017-10-31T21:13:57.491Z,10.43
2017-10-31T21:16:25.176Z,12.40
2017-10-31T21:18:52.849Z,5.90
2017-10-31T21:21:20.473Z,7.37
2017-10-31T21:23:48.167Z,8.40
2017-10-31T21:26:15.835Z,7.67
2017-10-31T21:28:43.455Z,11.53
2017-10-31T21:31:11.115Z,8.70
2017-10-31T21:33:39.483Z,20.47
2017-10-31T21:36:07.099Z,11.63
2017-10-31T21:38:34.755Z,7.37
2017-10-31T21:41:02.432Z,7.23
2017-10-31T21:43:30.041Z,8.50
2017-10-31T21:45:57.715Z,10.77
2017-10-31T21:48:25.332Z,12.77
2017-10-31T21:53:51.168Z,5.97
2017-10-31T21:56:18.775Z,4.93
2017-10-31T21:58:46.387Z,6.30
2017-10-31T22:01:14.096Z,8.47
2017-10-31T22:03:41.696Z,5.57
2017-10-31T22:06:09.317Z,6.73
2017-10-31T22:08:36.988Z,4.33
2017-10-31T22:11:04.655Z,12.83
2017-10-31T22:13:32.272Z,7.70
2017-10-31T22:15:59.932Z,7.27
2017-10-31T22:18:27.543Z,6.80
2017-10-31T22:20:55.154Z,5.87
2017-10-31T22:23:22.817Z,9.07
2017-10-31T22:25:50.476Z,6.00
2017-10-31T22:28:18.144Z,6.90
2017-10-31T22:30:45.804Z,6.80
2017-10-31T22:33:13.429Z,12.90
2017-10-31T22:35:41.038Z,6.83
2017-10-31T22:38:08.707Z,5.23
2017-10-31T22:40:36.314Z,4.60
2017-10-31T22:43:03.932Z,7.80
2017-10-31T22:45:31.603Z,4.37
2017-10-31T22:47:59.223Z,10.83
2017-10-31T22:50:26.836Z,7.60
2017-10-31T22:52:54.560Z,10.77
2017-10-31T22:55:22.225Z,14.27
2017-10-31T22:57:49.837Z,10.93
2017-10-31T23:00:17.562Z,9.20
2017-10-31T23:02:45.231Z,6.30
2017-10-31T23:05:12.839Z,4.30
2017-10-31T23:07:40.599Z,5.23
2017-10-31T23:10:08.211Z,5.33
2017-10-31T23:12:35.876Z,7.70
2017-10-31T23:15:03.634Z,6.90
2017-10-31T23:17:31.304Z,7.50
2017-10-31T23:19:58.905Z,5.13
2017-10-31T23:22:26.551Z,8.07
2017-10-31T23:24:54.144Z,5.27
2017-10-31T23:27:21.750Z,3.40
2017-10-31T23:29:49.496Z,6.60
2017-10-31T23:32:17.165Z,6.53
2017-10-31T23:34:44.783Z,4.73
2017-10-31T23:37:12.428Z,2.37
2017-10-31T23:39:40.108Z,10.90
2017-10-31T23:42:07.717Z,3.23
2017-10-31T23:44:35.376Z,4.70
2017-10-31T23:47:02.987Z,16.17
2017-10-31T23:49:30.608Z,11.50
2017-10-31T23:51:58.271Z,4.20
2017-10-31T23:54:25.951Z,5.50
2017-10-31T23:56:53.562Z,3.70
2017-10-31T23:59:21.225Z,2.27
